createdAt,value
2023-01-18T00:01:06.315Z,1
2023-01-18T00:05:08.204Z,1
2023-01-18T00:10:08.403Z,1
2023-01-18T00:15:08.201Z,1
2023-01-18T00:20:08.010Z,1
2023-01-18T00:25:07.870Z,1
2023-01-18T00:30:08.646Z,1
2023-01-18T00:35:08.669Z,1
2023-01-18T00:40:08.523Z,1
2023-01-18T00:45:08.302Z,1
2023-01-18T00:50:08.129Z,1
2023-01-18T00:55:07.952Z,1
2023-01-18T01:00:07.718Z,1
2023-01-18T01:05:08.184Z,1
2023-01-18T01:10:08.019Z,1
2023-01-18T01:15:07.803Z,1
2023-01-18T01:20:08.632Z,1
2023-01-18T01:25:08.469Z,1
2023-01-18T01:30:08.257Z,1
2023-01-18T01:35:08.053Z,1
2023-01-18T01:40:07.851Z,1
2023-01-18T01:45:08.647Z,1
2023-01-18T01:50:08.477Z,1
2023-01-18T01:55:08.279Z,1
2023-01-18T02:00:10.223Z,1
2023-01-18T02:05:08.062Z,1
2023-01-18T02:10:07.943Z,1
2023-01-18T02:15:07.843Z,1
2023-01-18T02:20:08.673Z,1
2023-01-18T02:25:08.786Z,1
2023-01-18T02:30:08.566Z,1
2023-01-18T02:35:10.069Z,1
2023-01-18T02:40:07.883Z,1
2023-01-18T02:45:08.672Z,1
2023-01-18T02:50:08.523Z,1
2023-01-18T02:55:08.381Z,1
2023-01-18T03:00:08.215Z,1
2023-01-18T03:05:07.994Z,1
2023-01-18T03:10:07.858Z,1
2023-01-18T03:15:08.754Z,1
2023-01-18T03:20:08.637Z,1
2023-01-18T03:25:08.472Z,1
2023-01-18T03:30:08.283Z,1
2023-01-18T03:35:08.107Z,1
2023-01-18T03:40:07.961Z,1
2023-01-18T03:45:07.745Z,1
2023-01-18T03:50:08.571Z,1
2023-01-18T03:55:08.445Z,1
2023-01-18T04:00:08.267Z,1
2023-01-18T04:05:08.025Z,1
2023-01-18T04:10:07.834Z,1
2023-01-18T04:15:08.634Z,1
2023-01-18T04:20:08.453Z,1
2023-01-18T04:25:08.244Z,1
2023-01-18T04:30:08.059Z,1
2023-01-18T04:35:07.883Z,1
2023-01-18T04:40:08.711Z,1
2023-01-18T04:45:08.600Z,1
2023-01-18T04:50:08.458Z,1
2023-01-18T04:55:08.280Z,1
2023-01-18T05:00:08.903Z,1
2023-01-18T05:05:01.882Z,1
2023-01-18T05:10:02.763Z,1
2023-01-18T05:15:02.725Z,1
2023-01-18T05:20:02.629Z,1
2023-01-18T05:25:02.692Z,1
2023-01-18T05:30:03.771Z,1
2023-01-18T05:35:02.668Z,1
2023-01-18T05:40:02.559Z,1
2023-01-18T05:45:02.590Z,1
2023-01-18T05:50:02.515Z,1
2023-01-18T05:55:02.383Z,1
2023-01-18T06:00:02.299Z,1
2023-01-18T06:05:02.202Z,1
2023-01-18T06:10:02.162Z,1
2023-01-18T06:15:02.166Z,1
2023-01-18T06:20:02.128Z,1
2023-01-18T06:25:02.114Z,1
2023-01-18T06:30:01.979Z,1
2023-01-18T06:35:01.946Z,1
2023-01-18T06:40:02.896Z,1
2023-01-18T06:45:01.940Z,1
2023-01-18T06:50:01.815Z,2
2023-01-18T06:55:02.894Z,2
2023-01-18T07:00:04.958Z,6
2023-01-18T07:05:01.935Z,6
2023-01-18T07:10:01.874Z,24
2023-01-18T07:15:16.259Z,38
2023-01-18T07:20:02.677Z,38
2023-01-18T07:25:02.547Z,65
2023-01-18T07:30:02.506Z,65
2023-01-18T07:35:02.720Z,171
2023-01-18T07:40:02.639Z,171
2023-01-18T07:45:02.570Z,564
2023-01-18T07:50:02.503Z,564
2023-01-18T07:55:02.526Z,967
2023-01-18T08:00:02.495Z,1000
2023-01-18T08:05:02.386Z,1000
2023-01-18T08:10:02.326Z,1000
2023-01-18T08:15:02.162Z,1000
2023-01-18T08:20:02.087Z,2000
2023-01-18T08:25:02.027Z,2000
2023-01-18T08:30:01.946Z,3000
2023-01-18T08:35:02.178Z,3000
2023-01-18T08:40:02.122Z,3000
2023-01-18T08:45:02.086Z,3000
2023-01-18T08:50:01.978Z,3000
2023-01-18T08:55:06.312Z,3000
2023-01-18T09:00:02.147Z,4000
2023-01-18T09:05:02.193Z,4000
2023-01-18T09:10:02.095Z,36000
2023-01-18T09:15:02.041Z,36000
2023-01-18T09:20:01.968Z,38000
2023-01-18T09:25:01.890Z,38000
2023-01-18T09:30:02.824Z,37000
2023-01-18T09:35:02.703Z,43000
2023-01-18T09:40:02.846Z,43000
2023-01-18T09:45:02.773Z,43000
2023-01-18T09:50:02.684Z,43000
2023-01-18T09:55:02.629Z,43000
2023-01-18T10:00:04.036Z,43000
2023-01-18T10:05:01.925Z,43000
2023-01-18T10:10:02.829Z,44000
2023-01-18T10:15:02.746Z,44000
2023-01-18T10:20:02.828Z,59000
2023-01-18T10:25:03.302Z,59000
2023-01-18T10:30:03.108Z,56000
2023-01-18T10:35:01.968Z,56000
2023-01-18T10:40:01.926Z,60000
2023-01-18T10:45:02.869Z,60000
2023-01-18T10:50:02.769Z,63000
2023-01-18T10:55:02.720Z,63000
2023-01-18T11:00:02.615Z,64000
2023-01-18T11:05:12.538Z,64000
2023-01-18T11:10:02.407Z,63000
2023-01-18T11:15:02.796Z,63000
2023-01-18T11:20:02.656Z,63000
2023-01-18T11:25:02.596Z,63000
2023-01-18T11:30:02.527Z,63000
2023-01-18T11:35:02.474Z,63000
2023-01-18T11:40:12.397Z,61000
2023-01-18T11:45:02.298Z,61000
2023-01-18T11:50:10.419Z,42000
2023-01-18T11:55:02.100Z,42000
2023-01-18T12:00:02.134Z,58000
2023-01-18T12:05:12.116Z,58000
2023-01-18T12:10:01.993Z,44000
2023-01-18T12:15:01.924Z,44000
2023-01-18T12:20:01.864Z,44000
2023-01-18T12:25:12.824Z,44000
2023-01-18T12:30:02.729Z,41000
2023-01-18T12:35:10.044Z,41000
2023-01-18T12:40:02.595Z,4000
2023-01-18T12:45:02.603Z,4000
2023-01-18T12:50:04.319Z,4000
2023-01-18T12:55:02.313Z,4000
2023-01-18T13:00:02.347Z,4000
2023-01-18T13:05:13.674Z,4000
2023-01-18T13:10:02.784Z,4000
2023-01-18T13:15:02.922Z,4000
2023-01-18T13:20:01.830Z,4000
2023-01-18T13:25:12.626Z,4000
2023-01-18T13:30:02.536Z,4000
2023-01-18T13:35:19.023Z,4000
2023-01-18T13:40:02.144Z,4000
2023-01-18T13:45:02.112Z,3000
2023-01-18T13:50:02.006Z,3000
2023-01-18T13:55:02.099Z,3000
2023-01-18T14:00:02.086Z,3000
2023-01-18T14:05:02.027Z,3000
2023-01-18T14:10:02.002Z,3000
2023-01-18T14:15:01.994Z,3000
2023-01-18T14:20:02.046Z,6000
2023-01-18T14:25:01.959Z,6000
2023-01-18T14:30:01.920Z,4000
2023-01-18T14:35:02.814Z,4000
2023-01-18T14:40:02.798Z,2000
2023-01-18T14:45:02.699Z,2000
2023-01-18T14:50:02.674Z,2000
2023-01-18T14:55:02.608Z,2000
2023-01-18T15:00:02.669Z,2000
2023-01-18T15:05:02.725Z,2000
2023-01-18T15:10:02.671Z,1000
2023-01-18T15:15:02.570Z,1000
2023-01-18T15:20:02.532Z,1000
2023-01-18T15:25:02.453Z,1000
2023-01-18T15:30:02.412Z,1000
2023-01-18T15:35:02.473Z,1000
2023-01-18T15:40:02.504Z,740
2023-01-18T15:45:02.432Z,740
2023-01-18T15:50:02.415Z,308
2023-01-18T15:55:02.458Z,308
2023-01-18T16:00:02.360Z,96
2023-01-18T16:05:02.327Z,96
2023-01-18T16:10:12.216Z,80
2023-01-18T16:15:02.084Z,80
2023-01-18T16:20:02.138Z,22
2023-01-18T16:25:02.058Z,14
2023-01-18T16:30:02.081Z,14
2023-01-18T16:35:01.978Z,4
2023-01-18T16:40:02.065Z,4
2023-01-18T16:45:02.061Z,2
2023-01-18T16:50:02.004Z,2
2023-01-18T16:55:01.964Z,1
2023-01-18T17:00:01.880Z,1
2023-01-18T17:05:02.807Z,1
2023-01-18T17:10:02.798Z,1
2023-01-18T17:15:02.758Z,1
2023-01-18T17:20:02.853Z,1
2023-01-18T17:25:02.837Z,1
2023-01-18T17:30:02.881Z,1
2023-01-18T17:35:02.809Z,1
2023-01-18T17:40:15.740Z,1
2023-01-18T17:45:02.298Z,1
2023-01-18T17:50:02.166Z,1
2023-01-18T17:55:02.318Z,1
2023-01-18T18:00:02.383Z,1
2023-01-18T18:05:02.430Z,1
2023-01-18T18:10:02.375Z,1
2023-01-18T18:15:02.345Z,1
2023-01-18T18:20:02.299Z,1
2023-01-18T18:25:02.326Z,1
2023-01-18T18:30:02.364Z,1
2023-01-18T18:35:03.846Z,1
2023-01-18T18:40:02.340Z,1
2023-01-18T18:45:02.312Z,1
2023-01-18T18:50:02.288Z,1
2023-01-18T18:55:02.392Z,1
2023-01-18T19:00:02.347Z,1
2023-01-18T19:05:02.319Z,1
2023-01-18T19:10:02.312Z,1
2023-01-18T19:15:02.253Z,1
2023-01-18T19:20:02.167Z,1
2023-01-18T19:25:04.041Z,1
2023-01-18T19:30:02.073Z,1
2023-01-18T19:35:02.157Z,1
2023-01-18T19:40:02.247Z,1
2023-01-18T19:45:03.915Z,1
2023-01-18T19:50:02.687Z,1
2023-01-18T19:55:02.613Z,1
2023-01-18T20:00:02.598Z,1
2023-01-18T20:05:02.549Z,1
2023-01-18T20:10:02.479Z,1
2023-01-18T20:15:02.482Z,1
2023-01-18T20:20:02.674Z,1
2023-01-18T20:25:02.637Z,1
2023-01-18T20:30:02.571Z,1
2023-01-18T20:35:02.568Z,1
2023-01-18T20:40:02.649Z,1
2023-01-18T20:45:02.516Z,1
2023-01-18T20:50:02.355Z,1
2023-01-18T20:55:02.486Z,1
2023-01-18T21:00:02.558Z,1
2023-01-18T21:05:02.536Z,1
2023-01-18T21:10:02.389Z,1
2023-01-18T21:15:02.312Z,1
2023-01-18T21:20:02.244Z,1
2023-01-18T21:25:02.173Z,1
2023-01-18T21:30:02.108Z,1
2023-01-18T21:35:02.171Z,1
2023-01-18T21:40:02.115Z,1
2023-01-18T21:45:01.986Z,1
2023-01-18T21:50:16.935Z,1
2023-01-18T21:55:02.167Z,1
2023-01-18T22:00:02.145Z,1
2023-01-18T22:05:18.779Z,1
2023-01-18T22:10:08.666Z,1
2023-01-18T22:15:08.438Z,1
2023-01-18T22:20:08.221Z,1
2023-01-18T22:25:08.018Z,1
2023-01-18T22:30:07.803Z,1
2023-01-18T22:35:08.615Z,1
2023-01-18T22:40:08.446Z,1
2023-01-18T22:45:08.259Z,1
2023-01-18T22:50:08.105Z,1
2023-01-18T22:55:07.912Z,1
2023-01-18T23:00:08.713Z,1
2023-01-18T23:05:08.537Z,1
2023-01-18T23:10:08.352Z,1
2023-01-18T23:15:08.119Z,1
2023-01-18T23:20:07.898Z,1
2023-01-18T23:25:08.717Z,1
2023-01-18T23:30:08.523Z,1
2023-01-18T23:35:08.324Z,1
2023-01-18T23:40:08.182Z,1
2023-01-18T23:45:07.958Z,1
2023-01-18T23:50:07.791Z,1
2023-01-18T23:55:08.611Z,1
